Time;durP1;ratioP1;P1;durP2;ratioP2;P2;SDS_P1;SDS_P2;PMS_P1;PMS_P2;Temp;Humidity;BMP_temperature;BMP_pressure;BME280_temperature;BME280_humidity;BME280_pressure;Samples;Min_cycle;Max_cycle;Signal;HPM_P1;HPM_P2
2022/07/25 00:00:36;;;;;;;1.50;1.40;;;;;;;28.57;43.70;100966.19;5067009;28;20120;-72
2022/07/25 00:03:02;;;;;;;1.60;1.50;;;;;;;28.55;44.06;100961.88;5058179;28;20535;-72
2022/07/25 00:05:27;;;;;;;1.75;1.50;;;;;;;28.55;43.70;100962.72;5061448;28;21359;-72
2022/07/25 00:07:53;;;;;;;1.70;1.60;;;;;;;28.55;43.74;100954.69;5062038;28;20498;-72
2022/07/25 00:10:19;;;;;;;1.63;1.52;;;;;;;28.53;44.02;100951.25;5068956;28;20202;-72
2022/07/25 00:12:44;;;;;;;1.63;1.50;;;;;;;28.57;43.74;100946.56;5068978;28;20029;-72
2022/07/25 00:15:11;;;;;;;1.60;1.50;;;;;;;28.55;44.11;100956.50;5061344;28;20043;-72
2022/07/25 00:17:37;;;;;;;1.80;1.60;;;;;;;28.56;44.12;100940.31;5069238;28;20055;-72
2022/07/25 00:20:03;;;;;;;2.00;1.60;;;;;;;28.55;44.16;100946.63;5060153;28;20036;-72
2022/07/25 00:22:29;;;;;;;1.75;1.50;;;;;;;28.54;44.06;100941.41;5056616;28;20113;-72
2022/07/25 00:24:55;;;;;;;1.73;1.50;;;;;;;28.54;43.81;100947.63;5056565;28;20096;-72
2022/07/25 00:27:20;;;;;;;1.70;1.60;;;;;;;28.53;43.86;100936.97;5068275;28;20033;-72
2022/07/25 00:29:46;;;;;;;1.70;1.60;;;;;;;28.52;44.15;100933.44;5059865;28;20079;-73
2022/07/25 00:32:11;;;;;;;1.63;1.52;;;;;;;28.53;43.80;100934.28;5054109;28;20104;-72
2022/07/25 00:34:37;;;;;;;1.70;1.50;;;;;;;28.53;44.07;100927.13;5062749;28;20466;-72
2022/07/25 00:37:02;;;;;;;1.60;1.50;;;;;;;28.51;43.77;100922.78;5049315;28;20534;-71
2022/07/25 00:39:27;;;;;;;1.73;1.63;;;;;;;28.51;44.25;100917.44;5055192;28;20127;-72
2022/07/25 00:41:53;;;;;;;1.80;1.60;;;;;;;28.51;43.76;100915.59;5065418;28;20048;-72
2022/07/25 00:44:27;;;;;;;1.60;1.50;;;;;;;28.49;44.15;100912.16;5058581;28;20086;-72
2022/07/25 00:46:53;;;;;;;1.60;1.50;;;;;;;28.51;44.15;100909.38;5050786;28;20025;-72
2022/07/25 00:49:19;;;;;;;1.70;1.55;;;;;;;28.50;44.07;100900.47;5066515;28;20044;-72
2022/07/25 00:51:44;;;;;;;1.50;1.40;;;;;;;28.50;43.84;100902.28;5054345;28;20036;-72
2022/07/25 00:54:10;;;;;;;1.80;1.60;;;;;;;28.51;44.18;100901.34;5058200;28;20094;-72
2022/07/25 00:56:36;;;;;;;1.98;1.60;;;;;;;28.50;43.86;100894.22;5065286;28;20027;-72
2022/07/25 00:59:02;;;;;;;1.70;1.60;;;;;;;28.50;43.80;100895.09;5057963;28;20043;-72
2022/07/25 01:01:27;;;;;;;1.65;1.48;;;;;;;28.50;44.15;100891.56;5067834;28;20601;-72
2022/07/25 01:03:53;;;;;;;1.50;1.40;;;;;;;28.49;44.03;100893.38;5060417;28;20029;-72
2022/07/25 01:06:20;;;;;;;1.65;1.55;;;;;;;28.49;44.18;100881.78;5055331;28;20033;-72
2022/07/25 01:08:46;;;;;;;2.00;1.58;;;;;;;28.49;43.92;100879.09;5060485;28;20025;-72
2022/07/25 01:11:11;;;;;;;1.75;1.60;;;;;;;28.49;43.88;100873.72;5063956;28;20037;-72
2022/07/25 01:13:37;;;;;;;2.10;1.70;;;;;;;28.46;44.00;100864.06;5063563;28;20029;-72
2022/07/25 01:16:03;;;;;;;1.70;1.60;;;;;;;28.45;44.06;100867.69;5070471;28;20161;-72
2022/07/25 01:18:28;;;;;;;1.75;1.60;;;;;;;28.46;44.23;100863.19;5065652;28;20049;-72
2022/07/25 01:20:53;;;;;;;1.60;1.50;;;;;;;28.47;43.92;100856.88;5069849;28;20031;-72
2022/07/25 01:23:19;;;;;;;1.77;1.67;;;;;;;28.46;44.29;100849.78;5061743;28;20025;-72
2022/07/25 01:25:44;;;;;;;1.60;1.50;;;;;;;28.45;43.98;100850.75;5071866;28;20033;-72
2022/07/25 01:28:10;;;;;;;1.77;1.50;;;;;;;28.43;43.99;100856.19;5062920;28;20029;-72
2022/07/25 01:30:35;;;;;;;1.80;1.50;;;;;;;28.42;44.18;100849.09;5056779;28;20025;-72
2022/07/25 01:33:01;;;;;;;2.05;1.85;;;;;;;28.43;44.14;100847.28;5065977;28;20186;-72
2022/07/25 01:35:26;;;;;;;1.70;1.60;;;;;;;28.45;44.46;100842.69;5051606;28;20080;-72
2022/07/25 01:37:51;;;;;;;2.10;1.90;;;;;;;28.44;43.92;100836.47;5066521;28;20039;-72
2022/07/25 01:40:17;;;;;;;1.70;1.58;;;;;;;28.42;44.02;100837.53;5054961;28;20037;-73
2022/07/25 01:42:42;;;;;;;1.75;1.45;;;;;;;28.41;44.27;100836.69;5065285;28;20060;-72
2022/07/25 01:45:09;;;;;;;1.85;1.50;;;;;;;28.39;44.50;100835.91;5059317;28;20691;-72
2022/07/25 01:47:34;;;;;;;1.67;1.58;;;;;;;28.39;44.31;100833.22;5057135;28;20128;-72
2022/07/25 01:50:00;;;;;;;1.75;1.60;;;;;;;28.39;44.50;100833.22;5063336;28;20378;-72
2022/07/25 01:52:25;;;;;;;1.70;1.60;;;;;;;28.39;44.38;100832.34;5065964;28;20039;-72
2022/07/25 01:54:50;;;;;;;1.88;1.55;;;;;;;28.40;44.39;100826.03;5062301;28;20025;-71
2022/07/25 01:57:16;;;;;;;1.90;1.70;;;;;;;28.41;44.32;100819.72;5059916;28;20056;-72
2022/07/25 01:59:41;;;;;;;1.85;1.70;;;;;;;28.40;44.36;100820.66;5059882;28;20036;-72
2022/07/25 02:02:08;;;;;;;1.73;1.63;;;;;;;28.37;44.50;100816.34;5053702;28;20029;-72
2022/07/25 02:04:35;;;;;;;1.70;1.60;;;;;;;28.37;44.19;100819.03;5061889;28;20044;-72
2022/07/25 02:07:01;;;;;;;1.73;1.60;;;;;;;28.38;44.04;100811.84;5060210;28;20028;-72
2022/07/25 02:09:26;;;;;;;1.80;1.60;;;;;;;28.35;44.22;100810.25;5056489;28;20025;-72
2022/07/25 02:11:52;;;;;;;2.05;1.73;;;;;;;28.36;44.14;100813.78;5057468;28;20037;-72
2022/07/25 02:14:17;;;;;;;1.90;1.70;;;;;;;28.36;44.18;100805.75;5064803;28;20078;-72
2022/07/25 02:16:42;;;;;;;1.83;1.60;;;;;;;28.36;44.05;100798.53;5065942;28;20494;-72
2022/07/25 02:19:08;;;;;;;2.00;1.80;;;;;;;28.36;43.86;100793.16;5059785;28;20072;-72
2022/07/25 02:21:34;;;;;;;2.00;1.70;;;;;;;28.36;44.37;100784.28;5051173;28;20029;-72
2022/07/25 02:23:59;;;;;;;1.63;1.52;;;;;;;28.33;44.47;100785.31;5066566;28;20032;-73
2022/07/25 02:26:24;;;;;;;1.70;1.60;;;;;;;28.33;44.42;100781.78;5060423;28;20516;-72
2022/07/25 02:28:50;;;;;;;2.00;1.80;;;;;;;28.34;44.06;100786.19;5050914;28;20033;-73
2022/07/25 02:31:16;;;;;;;1.88;1.70;;;;;;;28.33;44.37;100782.66;5051644;28;20032;-72
2022/07/25 02:33:41;;;;;;;1.90;1.70;;;;;;;28.34;44.30;100775.47;5068296;28;20032;-73
2022/07/25 02:36:08;;;;;;;2.35;1.80;;;;;;;28.31;44.25;100772.97;5054065;28;20048;-73
2022/07/25 02:38:33;;;;;;;2.28;1.70;;;;;;;28.32;44.47;100766.66;5060190;28;20024;-72
2022/07/25 02:40:59;;;;;;;2.10;1.90;;;;;;;28.32;44.39;100763.97;5063231;28;20117;-72
2022/07/25 02:43:24;;;;;;;3.03;1.65;;;;;;;28.31;44.47;100760.41;5050656;28;20040;-72
2022/07/25 02:45:49;;;;;;;2.30;1.80;;;;;;;28.31;44.10;100757.72;5051997;28;20391;-72
2022/07/25 02:48:15;;;;;;;2.00;1.80;;;;;;;28.29;44.28;100745.41;5062098;28;20029;-72
2022/07/25 02:50:40;;;;;;;1.88;1.70;;;;;;;28.29;44.39;100748.09;5065438;28;20031;-72
2022/07/25 02:53:06;;;;;;;2.10;1.90;;;;;;;28.29;44.67;100746.25;5049822;28;20029;-73
2022/07/25 02:55:31;;;;;;;1.90;1.70;;;;;;;28.30;44.45;100744.44;5063474;28;20031;-73
2022/07/25 02:57:57;;;;;;;1.98;1.80;;;;;;;28.29;44.12;100743.59;5069928;28;20390;-73
2022/07/25 03:00:23;;;;;;;2.15;1.90;;;;;;;28.28;44.08;100736.50;5060626;28;20135;-72
2022/07/25 03:02:48;;;;;;;2.00;1.80;;;;;;;28.27;44.51;100725.84;5061843;28;20032;-72
2022/07/25 03:05:15;;;;;;;2.00;1.80;;;;;;;28.27;44.08;100725.84;5050998;28;20028;-72
2022/07/25 03:07:42;;;;;;;2.20;1.80;;;;;;;28.28;44.56;100719.53;5048714;28;20036;-72
2022/07/25 03:10:09;;;;;;;2.28;1.80;;;;;;;28.23;44.55;100717.16;5056546;28;20040;-72
2022/07/25 03:12:35;;;;;;;2.00;1.80;;;;;;;28.21;44.41;100719.94;5052860;28;20021;-72
2022/07/25 03:15:01;;;;;;;2.15;1.75;;;;;;;28.22;44.37;100729.69;5059267;28;20021;-72
2022/07/25 03:17:27;;;;;;;2.10;1.90;;;;;;;28.25;44.56;100732.16;5069030;28;20120;-72
2022/07/25 03:19:53;;;;;;;2.10;1.90;;;;;;;28.26;44.51;100725.00;5063074;28;20029;-72
2022/07/25 03:22:19;;;;;;;2.00;1.80;;;;;;;28.26;44.28;100722.31;5065032;28;20036;-72
2022/07/25 03:24:44;;;;;;;2.17;1.90;;;;;;;28.24;44.35;100730.44;5058365;28;20029;-72
2022/07/25 03:27:10;;;;;;;2.20;1.98;;;;;;;28.23;44.31;100727.88;5053037;28;20041;-73
2022/07/25 03:29:35;;;;;;;2.10;1.90;;;;;;;28.23;44.38;100718.03;5053831;28;20141;-72
2022/07/25 03:32:01;;;;;;;2.17;1.80;;;;;;;28.22;44.68;100712.75;5053516;28;20033;-72
2022/07/25 03:34:26;;;;;;;2.05;1.85;;;;;;;28.21;44.52;100706.53;5069957;28;20504;-72
2022/07/25 03:36:52;;;;;;;2.20;1.90;;;;;;;28.20;44.26;100703.94;5067429;28;20408;-72
2022/07/25 03:39:19;;;;;;;2.13;1.92;;;;;;;28.22;44.37;100702.03;5051900;28;20040;-72
2022/07/25 03:41:45;;;;;;;2.20;1.90;;;;;;;28.21;44.60;100702.97;5057827;28;20072;-72
2022/07/25 03:44:12;;;;;;;2.13;1.92;;;;;;;28.21;44.65;100692.25;5069445;28;20076;-73
2022/07/25 03:46:38;;;;;;;2.10;1.90;;;;;;;28.20;44.33;100682.47;5053507;28;20396;-72
2022/07/25 03:49:03;;;;;;;2.05;1.85;;;;;;;28.19;44.33;100692.34;5064536;28;20437;-73
2022/07/25 03:51:29;;;;;;;2.10;1.90;;;;;;;28.15;44.75;100681.91;5051241;28;20693;-73
2022/07/25 03:54:07;;;;;;;2.20;2.00;;;;;;;28.19;44.47;100675.38;5048938;28;20128;-72
2022/07/25 03:56:51;;;;;;;2.30;2.10;;;;;;;28.18;44.40;100684.38;5049270;28;20064;-72
2022/07/25 03:59:20;;;;;;;2.40;2.20;;;;;;;28.19;44.72;100683.44;5049248;28;20032;-72
2022/07/25 04:01:48;;;;;;;2.10;1.90;;;;;;;28.20;44.72;100680.66;5067563;28;20549;-72
2022/07/25 04:04:14;;;;;;;2.20;1.92;;;;;;;28.18;44.58;100679.88;5048100;28;20041;-72
2022/07/25 04:06:40;;;;;;;2.45;2.00;;;;;;;28.17;44.69;100674.66;5054944;28;20028;-72
2022/07/25 04:09:07;;;;;;;1.98;1.77;;;;;;;28.18;44.67;100676.34;5060139;28;20036;-72
2022/07/25 04:11:34;;;;;;;2.30;2.10;;;;;;;28.17;44.43;100675.50;5060550;28;20028;-72
2022/07/25 04:14:01;;;;;;;2.75;2.22;;;;;;;28.17;44.69;100685.38;5063662;28;20032;-72
2022/07/25 04:16:27;;;;;;;2.25;2.00;;;;;;;28.16;44.42;100675.59;5056619;28;20066;-72
2022/07/25 04:18:52;;;;;;;2.28;2.08;;;;;;;28.17;44.64;100663.94;5059849;28;20041;-72
2022/07/25 04:21:18;;;;;;;2.75;2.20;;;;;;;28.17;44.32;100666.59;5058967;28;20033;-72
2022/07/25 04:23:43;;;;;;;3.00;2.03;;;;;;;28.16;44.61;100660.38;5057446;28;20037;-72
2022/07/25 04:26:09;;;;;;;2.47;2.17;;;;;;;28.16;44.34;100665.75;5066740;28;20030;-72
2022/07/25 04:28:34;;;;;;;2.00;1.80;;;;;;;28.15;44.67;100653.28;5048949;28;20056;-72
2022/07/25 04:31:00;;;;;;;2.28;2.08;;;;;;;28.16;44.29;100649.66;5062385;28;20025;-72
2022/07/25 04:33:25;;;;;;;2.42;2.17;;;;;;;28.15;44.61;100637.22;5066078;28;20037;-72
2022/07/25 04:35:51;;;;;;;2.15;1.90;;;;;;;28.15;44.53;100647.06;5052078;28;20031;-72
2022/07/25 04:38:16;;;;;;;2.22;1.98;;;;;;;28.14;44.33;100650.69;5063871;28;20119;-71
2022/07/25 04:40:41;;;;;;;2.50;2.30;;;;;;;28.15;44.38;100639.03;5068111;28;20083;-73
2022/07/25 04:43:07;;;;;;;2.25;2.00;;;;;;;28.15;44.53;100636.34;5063628;28;20041;-73
2022/07/25 04:45:33;;;;;;;2.40;2.20;;;;;;;28.18;44.33;100636.13;5061338;28;20029;-72
2022/07/25 04:47:59;;;;;;;2.40;2.20;;;;;;;28.18;44.73;100644.19;5068188;28;20486;-72
2022/07/25 04:50:25;;;;;;;2.60;2.40;;;;;;;28.16;44.54;100638.94;5061182;28;20057;-72
2022/07/25 04:52:50;;;;;;;2.42;2.17;;;;;;;28.17;44.55;100629.09;5061182;28;20052;-72
2022/07/25 04:55:15;;;;;;;2.42;2.22;;;;;;;28.19;44.28;100637.88;5052514;28;20037;-72
2022/07/25 04:57:41;;;;;;;2.60;2.22;;;;;;;28.17;44.44;100640.66;5058053;28;20040;-72
2022/07/25 05:00:08;;;;;;;2.63;2.40;;;;;;;28.19;44.55;100637.88;5055140;28;20029;-72
2022/07/25 05:02:34;;;;;;;2.72;2.20;;;;;;;28.18;44.52;100638.81;5056724;28;20033;-71
2022/07/25 05:05:01;;;;;;;2.75;2.40;;;;;;;28.19;44.54;100632.50;5056001;28;20074;-72
2022/07/25 05:07:26;;;;;;;2.40;2.20;;;;;;;28.17;44.33;100623.72;5071369;28;20436;-72
2022/07/25 05:09:51;;;;;;;2.65;2.42;;;;;;;28.18;44.25;100623.59;5064852;28;20067;-72
2022/07/25 05:12:17;;;;;;;2.45;2.20;;;;;;;28.19;44.49;100627.13;5068825;28;20069;-72
2022/07/25 05:14:42;;;;;;;2.15;1.95;;;;;;;28.20;44.44;100620.81;5063700;28;20108;-72
2022/07/25 05:17:08;;;;;;;2.45;2.25;;;;;;;28.20;44.43;100624.38;5052246;28;20037;-72
2022/07/25 05:19:33;;;;;;;2.60;2.40;;;;;;;28.19;44.24;100611.91;5062169;28;20028;-72
2022/07/25 05:22:00;;;;;;;2.63;2.38;;;;;;;28.19;44.53;100606.56;5068866;28;20055;-72
2022/07/25 05:24:25;;;;;;;2.60;2.40;;;;;;;28.17;44.30;100613.88;5058056;28;20071;-72
2022/07/25 05:26:51;;;;;;;2.90;2.60;;;;;;;28.18;44.29;100609.34;5054588;28;20056;-73
2022/07/25 05:29:16;;;;;;;2.80;2.40;;;;;;;28.18;44.43;100604.84;5070054;28;20040;-72
2022/07/25 05:31:41;;;;;;;3.22;2.50;;;;;;;28.19;44.17;100600.34;5062827;28;20055;-72
2022/07/25 05:34:07;;;;;;;2.97;2.67;;;;;;;28.20;44.50;100604.75;5059764;28;20029;-72
2022/07/25 05:36:32;;;;;;;2.90;2.60;;;;;;;28.18;44.15;100612.00;5051859;28;20068;-71
2022/07/25 05:38:59;;;;;;;2.63;2.33;;;;;;;28.19;44.57;100613.75;5052066;28;20029;-72
2022/07/25 05:41:25;;;;;;;3.53;2.70;;;;;;;28.19;44.19;100616.41;5052951;28;20065;-71
2022/07/25 05:43:51;;;;;;;2.80;2.50;;;;;;;28.19;44.49;100614.59;5066961;28;20047;-72
2022/07/25 05:46:17;;;;;;;2.60;2.40;;;;;;;28.22;44.39;100616.25;5054192;28;20136;-71
2022/07/25 05:48:42;;;;;;;2.70;2.50;;;;;;;28.20;44.19;100605.59;5059708;28;20058;-71
2022/07/25 05:51:08;;;;;;;2.75;2.42;;;;;;;28.21;44.21;100603.78;5058234;28;20044;-71
2022/07/25 05:53:33;;;;;;;2.80;2.50;;;;;;;28.22;44.41;100603.69;5069093;28;20028;-72
2022/07/25 05:55:59;;;;;;;2.80;2.60;;;;;;;28.22;44.10;100605.50;5062359;28;20028;-71
2022/07/25 05:58:24;;;;;;;2.70;2.47;;;;;;;28.21;44.27;100604.66;5062256;28;20036;-72
2022/07/25 06:00:50;;;;;;;3.15;2.50;;;;;;;28.25;44.29;100611.53;5061709;28;20138;-72
2022/07/25 06:03:19;;;;;;;3.05;2.70;;;;;;;28.29;43.99;100600.63;5064051;28;20386;-72
2022/07/25 06:05:45;;;;;;;2.97;2.60;;;;;;;28.34;44.25;100602.03;5051563;28;20668;-72
2022/07/25 06:08:14;;;;;;;2.72;2.45;;;;;;;28.34;44.06;100598.50;5061127;28;20109;-72
2022/07/25 06:10:41;;;;;;;3.10;2.60;;;;;;;28.39;43.75;100607.09;5064908;28;20386;-72
2022/07/25 06:13:07;;;;;;;2.67;2.47;;;;;;;28.45;43.97;100604.03;5056477;28;20038;-73
2022/07/25 06:15:33;;;;;;;2.80;2.45;;;;;;;28.53;43.69;100601.72;5060526;28;20037;-72
2022/07/25 06:17:58;;;;;;;2.60;2.40;;;;;;;28.57;43.51;100600.53;5055672;28;20090;-72
2022/07/25 06:20:24;;;;;;;2.80;2.60;;;;;;;28.55;43.61;100602.44;5055818;28;20028;-72
2022/07/25 06:22:49;;;;;;;2.70;2.50;;;;;;;28.50;43.73;100601.91;5056352;28;20058;-72
2022/07/25 06:25:15;;;;;;;2.95;2.65;;;;;;;28.49;43.77;100609.09;5056297;28;20032;-71
2022/07/25 06:27:40;;;;;;;2.80;2.60;;;;;;;28.53;43.67;100602.56;5061645;28;20087;-72
2022/07/25 06:30:07;;;;;;;3.03;2.72;;;;;;;28.55;43.45;100597.94;5054584;28;20461;-72
2022/07/25 06:32:33;;;;;;;3.10;2.45;;;;;;;28.53;43.53;100591.00;5067760;28;20040;-72
2022/07/25 06:34:58;;;;;;;3.08;2.50;;;;;;;28.56;43.63;100593.44;5059468;28;20463;-72
2022/07/25 06:37:24;;;;;;;2.80;2.50;;;;;;;28.55;43.67;100597.94;5062666;28;20029;-71
2022/07/25 06:39:50;;;;;;;3.00;2.70;;;;;;;28.53;43.43;100605.25;5066772;28;20029;-72
2022/07/25 06:42:15;;;;;;;2.90;2.60;;;;;;;28.53;43.69;100609.75;5064799;28;20394;-71
2022/07/25 06:44:41;;;;;;;3.03;2.70;;;;;;;28.54;43.50;100614.16;5055333;28;20487;-72
2022/07/25 06:47:11;;;;;;;3.00;2.70;;;;;;;28.54;43.61;100614.16;5054292;28;20067;-71
2022/07/25 06:49:40;;;;;;;2.95;2.65;;;;;;;28.55;43.57;100619.41;5050789;28;20395;-72
2022/07/25 06:52:06;;;;;;;3.42;2.65;;;;;;;28.56;43.26;100612.22;5067783;28;20021;-72
2022/07/25 06:54:31;;;;;;;2.67;2.47;;;;;;;28.55;43.74;100614.03;5069629;28;20035;-71
2022/07/25 06:56:57;;;;;;;3.08;2.70;;;;;;;28.56;43.49;100610.41;5068495;28;20086;-72
2022/07/25 06:59:22;;;;;;;3.40;2.70;;;;;;;28.58;43.67;100613.88;5062627;28;20036;-73
2022/07/25 07:01:48;;;;;;;2.90;2.53;;;;;;;28.57;43.84;100609.44;5064739;28;20386;-72
2022/07/25 07:04:13;;;;;;;3.00;2.70;;;;;;;28.59;43.41;100604.84;5067459;28;20032;-72
2022/07/25 07:06:38;;;;;;;3.20;2.80;;;;;;;28.59;43.73;100615.59;5061259;28;20051;-72
2022/07/25 07:09:05;;;;;;;3.00;2.70;;;;;;;28.58;43.78;100618.38;5070464;28;20111;-72
2022/07/25 07:11:30;;;;;;;3.03;2.72;;;;;;;28.59;43.84;100609.34;5068348;28;20115;-72
2022/07/25 07:13:55;;;;;;;3.35;2.88;;;;;;;28.60;43.84;100611.09;5070167;28;20120;-71
2022/07/25 07:16:21;;;;;;;2.95;2.60;;;;;;;28.59;43.50;100612.91;5067340;28;20044;-72
2022/07/25 07:18:46;;;;;;;2.72;2.53;;;;;;;28.61;43.79;100615.47;5056918;28;20464;-72
2022/07/25 07:21:11;;;;;;;3.10;2.80;;;;;;;28.63;43.44;100617.09;5066219;28;20093;-71
2022/07/25 07:23:37;;;;;;;2.90;2.65;;;;;;;28.63;43.76;100608.19;5053267;28;20094;-72
2022/07/25 07:26:02;;;;;;;3.13;2.60;;;;;;;28.63;43.43;100613.56;5058210;28;20036;-72
2022/07/25 07:28:27;;;;;;;3.08;2.78;;;;;;;28.62;43.45;100604.63;5058123;28;20063;-71
2022/07/25 07:30:53;;;;;;;3.10;2.80;;;;;;;28.63;43.50;100600.13;5063346;28;20401;-70
2022/07/25 07:33:18;;;;;;;2.50;2.30;;;;;;;28.62;43.67;100607.31;5058689;28;20680;-72
2022/07/25 07:35:44;;;;;;;3.25;2.88;;;;;;;28.64;43.72;100607.22;5053400;28;20029;-72
2022/07/25 07:38:10;;;;;;;3.08;2.78;;;;;;;28.62;43.86;100611.81;5060354;28;20067;-71
2022/07/25 07:40:35;;;;;;;2.90;2.60;;;;;;;28.61;44.04;100608.28;5058877;28;20064;-72
2022/07/25 07:43:02;;;;;;;3.10;2.80;;;;;;;28.62;43.83;100604.63;5065757;28;20132;-72
2022/07/25 07:45:28;;;;;;;2.60;2.40;;;;;;;28.63;43.61;100610.88;5058990;28;20021;-71
2022/07/25 07:47:54;;;;;;;2.90;2.58;;;;;;;28.63;43.67;100614.41;5063355;28;20036;-72
2022/07/25 07:50:23;;;;;;;3.00;2.70;;;;;;;28.64;43.46;100617.97;5056754;28;20436;-71
2022/07/25 07:52:50;;;;;;;3.08;2.70;;;;;;;28.64;43.65;100602.72;5064542;28;20035;-72
2022/07/25 07:58:00;;;;;;;3.13;2.83;;;;;;;28.65;43.84;100588.38;5055211;28;20035;-72
2022/07/25 08:00:29;;;;;;;2.85;2.55;;;;;;;28.67;43.44;100590.09;5052955;28;20032;-72
2022/07/25 08:02:54;;;;;;;3.00;2.53;;;;;;;28.67;43.45;100595.44;5067300;28;20089;-72
2022/07/25 08:05:31;;;;;;;3.20;2.80;;;;;;;28.67;43.62;100590.09;5062992;28;20030;-71
2022/07/25 08:07:58;;;;;;;3.35;2.80;;;;;;;28.67;43.51;100598.13;5057159;28;20037;-71
2022/07/25 08:10:27;;;;;;;3.00;2.70;;;;;;;28.65;43.45;100601.78;5063305;28;20029;-71
2022/07/25 08:12:52;;;;;;;3.10;2.80;;;;;;;28.66;43.71;100599.94;5054087;28;20450;-71
2022/07/25 08:15:20;;;;;;;2.90;2.55;;;;;;;28.65;43.87;100593.72;5068290;28;20131;-71
2022/07/25 08:17:46;;;;;;;2.92;2.63;;;;;;;28.65;43.64;100600.91;5058366;28;20064;-72
2022/07/25 08:20:12;;;;;;;2.60;2.40;;;;;;;28.67;43.70;100594.47;5073486;28;20041;-71
2022/07/25 08:22:40;;;;;;;2.90;2.60;;;;;;;28.67;43.59;100579.34;5063113;28;20079;-71
2022/07/25 08:25:08;;;;;;;3.03;2.72;;;;;;;28.67;43.42;100586.41;5060144;28;20031;-72
2022/07/25 08:27:34;;;;;;;2.70;2.40;;;;;;;28.67;43.67;100597.16;5070195;28;20036;-71
2022/07/25 08:30:00;;;;;;;2.97;2.60;;;;;;;28.69;43.45;100596.19;5067578;28;20029;-72
2022/07/25 08:32:27;;;;;;;3.05;2.67;;;;;;;28.67;43.84;100597.16;5057996;28;20020;-72
2022/07/25 08:34:52;;;;;;;3.08;2.78;;;;;;;28.67;43.51;100580.19;5071634;28;20032;-71
2022/07/25 08:37:18;;;;;;;3.00;2.70;;;;;;;28.67;43.44;100586.41;5063988;28;20086;-71
2022/07/25 08:39:43;;;;;;;3.00;2.70;;;;;;;28.69;43.61;100606.91;5055081;28;20494;-72
2022/07/25 08:42:09;;;;;;;2.72;2.47;;;;;;;28.67;43.55;100618.59;5071662;28;20079;-71
2022/07/25 08:44:39;;;;;;;3.00;2.67;;;;;;;28.67;43.51;100607.00;5065495;28;20036;-72
2022/07/25 08:47:06;;;;;;;3.10;2.80;;;;;;;28.67;43.50;100604.34;5062767;28;20020;-72
2022/07/25 08:49:34;;;;;;;2.97;2.67;;;;;;;28.69;43.69;100607.78;5047746;28;20043;-72
2022/07/25 08:52:01;;;;;;;3.00;2.67;;;;;;;28.65;43.68;100591.03;5064317;28;20036;-72
2022/07/25 08:54:27;;;;;;;2.83;2.60;;;;;;;28.66;44.00;100575.81;5068033;28;20036;-72
2022/07/25 08:56:52;;;;;;;2.97;2.67;;;;;;;28.69;43.92;100580.09;5054042;28;20065;-71
2022/07/25 08:59:17;;;;;;;3.00;2.70;;;;;;;28.67;43.90;100596.28;5058859;28;20143;-72
2022/07/25 09:01:43;;;;;;;3.15;2.85;;;;;;;28.66;43.72;100602.63;5061205;28;20028;-71
2022/07/25 09:04:08;;;;;;;2.70;2.50;;;;;;;28.67;43.58;100609.69;5060679;28;20039;-71
2022/07/25 09:06:34;;;;;;;3.10;2.80;;;;;;;28.69;43.86;100621.19;5061840;28;20112;-72
2022/07/25 09:09:03;;;;;;;2.83;2.53;;;;;;;28.67;43.96;100610.56;5054290;28;20098;-72
2022/07/25 09:11:36;;;;;;;2.95;2.58;;;;;;;28.67;43.99;100624.97;5055790;28;20033;-72
2022/07/25 09:14:06;;;;;;;2.97;2.67;;;;;;;28.67;43.81;100623.97;5056654;28;20108;-71
2022/07/25 09:16:34;;;;;;;2.70;2.40;;;;;;;28.67;43.83;100633.00;5054329;28;20029;-71
2022/07/25 09:19:09;;;;;;;2.78;2.47;;;;;;;28.67;43.59;100644.56;5058344;28;20032;-71
2022/07/25 09:21:35;;;;;;;3.28;2.83;;;;;;;28.67;43.95;100633.84;5062814;28;20033;-71
2022/07/25 09:24:17;;;;;;;2.85;2.55;;;;;;;28.67;43.98;100632.03;5060878;28;20020;-71
2022/07/25 09:26:48;;;;;;;3.00;2.70;;;;;;;28.68;43.76;100627.50;5052559;28;20064;-71
2022/07/25 09:29:19;;;;;;;2.83;2.53;;;;;;;28.71;43.56;100631.84;5064208;28;20024;-71
2022/07/25 09:31:45;;;;;;;2.85;2.55;;;;;;;28.71;43.68;100635.38;5059631;28;20213;-71
2022/07/25 09:34:11;;;;;;;2.70;2.50;;;;;;;28.72;43.67;100639.78;5070858;28;20107;-71
2022/07/25 09:36:42;;;;;;;3.00;2.70;;;;;;;28.73;43.77;100633.44;5068765;28;20075;-70
2022/07/25 09:39:07;;;;;;;3.45;2.35;;;;;;;28.75;43.61;100636.91;5050291;28;20493;-71
2022/07/25 09:41:33;;;;;;;2.80;2.53;;;;;;;28.76;43.55;100641.34;5067247;28;20029;-71
2022/07/25 09:43:59;;;;;;;3.00;2.70;;;;;;;28.79;43.77;100641.13;5061051;28;20033;-71
2022/07/25 09:46:29;;;;;;;2.70;2.50;;;;;;;28.80;43.94;100637.47;5061018;28;20102;-71
2022/07/25 09:48:58;;;;;;;2.67;2.47;;;;;;;28.81;43.85;100636.53;5052367;28;20063;-71
2022/07/25 09:51:27;;;;;;;2.67;2.40;;;;;;;28.80;43.42;100636.63;5063712;28;20390;-71
2022/07/25 09:53:53;;;;;;;2.60;2.40;;;;;;;28.80;43.92;100642.84;5058994;28;20056;-72
2022/07/25 09:56:18;;;;;;;2.80;2.50;;;;;;;28.80;43.62;100639.28;5051812;28;20056;-71
2022/07/25 09:58:43;;;;;;;2.78;2.35;;;;;;;28.80;43.65;100644.66;5051774;28;20051;-71
2022/07/25 10:01:16;;;;;;;2.97;2.67;;;;;;;28.81;43.67;100646.38;5049930;28;20453;-71
2022/07/25 10:03:49;;;;;;;2.92;2.63;;;;;;;28.80;43.63;100633.94;5055437;28;20470;-71
2022/07/25 10:06:19;;;;;;;2.50;2.30;;;;;;;28.82;43.62;100645.44;5054358;28;20033;-71
2022/07/25 10:08:45;;;;;;;2.60;2.40;;;;;;;28.82;43.82;100656.16;5051046;28;20483;-71
2022/07/25 10:11:37;;;;;;;2.42;2.22;;;;;;;28.82;43.82;100646.28;5054202;28;20033;-71
2022/07/25 10:14:11;;;;;;;2.60;2.30;;;;;;;28.86;43.80;100658.53;5059019;28;20052;-71
2022/07/25 10:16:47;;;;;;;2.65;2.30;;;;;;;28.87;43.76;100641.47;5055681;28;20107;-71
2022/07/25 10:19:13;;;;;;;2.63;2.40;;;;;;;28.88;43.97;100645.88;5062054;28;20061;-71
2022/07/25 10:21:39;;;;;;;2.55;2.33;;;;;;;28.88;43.60;100650.41;5060097;28;20029;-71
2022/07/25 10:24:09;;;;;;;2.58;2.30;;;;;;;28.88;43.79;100643.22;5064494;28;20043;-71
2022/07/25 10:26:38;;;;;;;2.60;2.40;;;;;;;28.90;43.74;100627.88;5063576;28;20086;-71
2022/07/25 10:29:08;;;;;;;2.47;2.25;;;;;;;28.90;43.81;100638.63;5060301;28;20124;-70
2022/07/25 10:31:41;;;;;;;2.70;2.50;;;;;;;28.93;43.51;100640.22;5059389;28;20029;-71
2022/07/25 10:34:09;;;;;;;2.50;2.30;;;;;;;28.93;43.62;100648.25;5053781;28;20032;-71
2022/07/25 10:36:46;;;;;;;2.50;2.30;;;;;;;28.92;43.67;100662.63;5058361;28;20024;-70
2022/07/25 10:39:14;;;;;;;2.63;2.40;;;;;;;28.93;43.88;100684.00;5059104;28;20497;-71
2022/07/25 10:41:42;;;;;;;2.50;2.30;;;;;;;28.93;43.89;100653.63;5060356;28;20033;-70
2022/07/25 10:44:14;;;;;;;2.80;2.50;;;;;;;28.92;43.81;100666.19;5060511;28;20095;-70
2022/07/25 10:46:44;;;;;;;2.50;2.30;;;;;;;28.93;43.69;100688.53;5065264;28;21565;-70
2022/07/25 10:49:25;;;;;;;2.47;2.28;;;;;;;28.91;44.09;100693.97;5064866;28;20043;-71
2022/07/25 10:51:59;;;;;;;2.78;2.47;;;;;;;28.91;43.67;100685.94;5056292;28;20112;-70
2022/07/25 10:54:31;;;;;;;2.40;2.20;;;;;;;28.91;43.63;100680.56;5062741;28;20106;-69
2022/07/25 10:56:58;;;;;;;2.60;2.35;;;;;;;28.91;43.71;100671.69;5061101;28;20367;-71
2022/07/25 10:59:38;;;;;;;3.20;2.45;;;;;;;28.90;43.64;100694.97;5058180;28;20028;-70
2022/07/25 11:02:07;;;;;;;2.30;2.10;;;;;;;28.92;43.83;100681.41;5070500;28;20028;-71
2022/07/25 11:04:33;;;;;;;2.72;2.28;;;;;;;28.92;43.95;100676.91;5054859;28;20033;-71
2022/07/25 11:07:13;;;;;;;2.60;2.40;;;;;;;28.92;43.64;100687.66;5054852;28;20032;-71
2022/07/25 11:09:40;;;;;;;2.75;2.20;;;;;;;28.92;44.04;100698.38;5058987;28;20024;-71
2022/07/25 11:12:06;;;;;;;2.80;2.40;;;;;;;28.93;43.56;100696.56;5052935;28;20071;-71
2022/07/25 11:14:35;;;;;;;2.40;2.20;;;;;;;28.94;43.75;100707.22;5056159;28;20031;-71
2022/07/25 11:17:09;;;;;;;2.40;2.20;;;;;;;28.96;43.81;100721.41;5060577;28;20035;-70
2022/07/25 11:19:35;;;;;;;2.30;2.10;;;;;;;28.98;43.61;100722.13;5053612;28;20028;-71
2022/07/25 11:22:03;;;;;;;2.38;2.17;;;;;;;28.98;43.98;100700.66;5065940;28;20036;-70
2022/07/25 11:24:43;;;;;;;2.55;2.35;;;;;;;29.00;43.59;100701.44;5059107;28;20470;-71